createdAt,value
2019-03-21T00:05:00.942Z,51.10
2019-03-21T00:10:17.490Z,38.77
2019-03-21T00:15:28.431Z,9.33
2019-03-21T00:20:34.342Z,13.63
2019-03-21T00:25:40.281Z,83.53
2019-03-21T00:30:46.161Z,74.25
2019-03-21T00:35:51.963Z,43.80
2019-03-21T00:40:57.767Z,59.57
2019-03-21T00:46:03.687Z,56.27
2019-03-21T00:56:26.826Z,95.53
2019-03-21T01:01:33.443Z,79.15
2019-03-21T01:06:39.242Z,49.05
2019-03-21T01:11:45.086Z,9.98
2019-03-21T01:16:50.886Z,8.60
2019-03-21T01:21:56.703Z,4.83
2019-03-21T01:27:02.542Z,6.37
2019-03-21T01:32:08.585Z,11.03
2019-03-21T01:37:14.679Z,5.90
2019-03-21T01:42:20.394Z,6.43
2019-03-21T01:47:26.147Z,2.93
2019-03-21T01:52:31.990Z,4.87
2019-03-21T01:57:37.894Z,18.77
2019-03-21T02:02:43.771Z,32.00
2019-03-21T02:07:49.503Z,57.97
2019-03-21T02:12:55.354Z,77.43
2019-03-21T02:18:01.173Z,88.60
2019-03-21T02:23:07.095Z,117.70
2019-03-21T02:28:12.837Z,85.90
2019-03-21T02:33:22.114Z,76.37
2019-03-21T02:38:27.858Z,10.37
2019-03-21T02:43:34.263Z,7.00
2019-03-21T02:48:40.181Z,19.77
2019-03-21T02:53:46.063Z,6.50
2019-03-21T02:58:51.853Z,11.87
2019-03-21T03:03:57.719Z,44.37
2019-03-21T03:09:04.399Z,54.23
2019-03-21T03:14:10.488Z,13.83
2019-03-21T03:19:16.324Z,23.03
2019-03-21T03:24:25.071Z,54.87
2019-03-21T03:29:30.934Z,19.00
2019-03-21T03:34:36.738Z,31.83
2019-03-21T03:39:42.570Z,54.00
2019-03-21T03:44:48.290Z,6.17
2019-03-21T03:49:54.169Z,3.10
2019-03-21T03:55:00.157Z,4.67
2019-03-21T04:00:07.290Z,9.73
2019-03-21T04:05:13.313Z,48.63
2019-03-21T04:10:23.678Z,60.37
2019-03-21T04:15:29.825Z,97.30
2019-03-21T04:20:37.061Z,86.03
2019-03-21T04:25:48.154Z,35.67
2019-03-21T04:30:54.242Z,47.70
2019-03-21T04:36:00.036Z,20.07
2019-03-21T04:41:06.121Z,52.67
2019-03-21T04:46:11.864Z,45.70
2019-03-21T04:51:17.671Z,61.93
2019-03-21T04:56:23.410Z,41.63
2019-03-21T05:01:29.166Z,69.43
2019-03-21T05:06:35.039Z,70.53
2019-03-21T05:11:40.815Z,55.33
2019-03-21T05:16:46.586Z,92.50
2019-03-21T05:21:52.450Z,60.50
2019-03-21T05:26:58.266Z,77.97
2019-03-21T05:32:04.120Z,60.40
2019-03-21T05:37:09.931Z,83.00
2019-03-21T05:42:19.477Z,70.90
2019-03-21T05:47:25.228Z,62.73
2019-03-21T05:52:31.257Z,89.47
2019-03-21T05:57:37.121Z,147.83
2019-03-21T06:02:42.951Z,81.10
2019-03-21T06:07:53.997Z,61.20
2019-03-21T06:12:59.821Z,115.60
2019-03-21T06:18:22.145Z,84.37
2019-03-21T06:23:38.477Z,152.87
2019-03-21T06:28:44.271Z,171.93
2019-03-21T06:33:50.123Z,144.87
2019-03-21T06:38:56.008Z,111.80
2019-03-21T06:44:02.174Z,113.50
2019-03-21T06:49:07.951Z,103.37
2019-03-21T06:54:13.733Z,88.03
2019-03-21T06:59:19.481Z,79.37
2019-03-21T07:04:25.230Z,131.43
2019-03-21T07:09:30.991Z,126.87
2019-03-21T07:14:36.903Z,117.80
2019-03-21T07:19:42.721Z,85.35
2019-03-21T07:24:48.654Z,39.17
2019-03-21T07:29:54.640Z,9.03
2019-03-21T07:35:00.685Z,4.60
2019-03-21T07:40:07.986Z,22.70
2019-03-21T07:45:13.872Z,2.97
2019-03-21T07:50:19.641Z,3.33
2019-03-21T07:55:27.685Z,1.33
2019-03-21T08:00:33.550Z,1.97
2019-03-21T08:05:40.741Z,1.40
2019-03-21T08:10:46.974Z,0.93
2019-03-21T08:15:52.816Z,2.20
2019-03-21T08:21:00.152Z,1.53
2019-03-21T08:26:09.251Z,3.37
2019-03-21T08:31:19.297Z,8.50
2019-03-21T08:36:25.369Z,5.73
2019-03-21T08:41:31.296Z,1.40
2019-03-21T08:46:37.158Z,5.03
2019-03-21T08:51:43.091Z,0.72
2019-03-21T08:56:49.137Z,1.90
2019-03-21T09:01:54.983Z,0.80
2019-03-21T09:07:03.981Z,1.63
2019-03-21T09:12:09.781Z,1.60
2019-03-21T09:17:15.618Z,1.87
2019-03-21T09:22:21.566Z,2.33
2019-03-21T09:27:27.550Z,4.40
2019-03-21T09:32:34.402Z,9.63
2019-03-21T09:37:40.237Z,7.57
2019-03-21T09:42:47.052Z,2.67
2019-03-21T09:47:52.987Z,3.53
2019-03-21T09:52:58.737Z,4.50
2019-03-21T09:58:04.832Z,5.10
2019-03-21T10:03:10.777Z,2.10
2019-03-21T10:08:16.532Z,2.00
2019-03-21T10:13:22.257Z,2.70
2019-03-21T10:18:28.026Z,2.70
2019-03-21T10:23:34.857Z,2.67
2019-03-21T10:28:40.771Z,2.33
2019-03-21T10:33:46.658Z,1.30
2019-03-21T10:38:52.814Z,1.60
2019-03-21T10:43:58.994Z,2.10
2019-03-21T10:49:04.862Z,2.33
2019-03-21T10:54:10.676Z,1.63
2019-03-21T10:59:16.426Z,2.40
2019-03-21T11:04:24.963Z,3.80
2019-03-21T11:09:31.282Z,4.03
2019-03-21T11:14:37.408Z,4.37
2019-03-21T11:19:43.232Z,3.30
2019-03-21T11:24:49.262Z,2.00
2019-03-21T11:29:55.137Z,1.30
2019-03-21T11:35:11.967Z,1.77
2019-03-21T11:40:17.700Z,3.37
2019-03-21T11:45:23.536Z,3.33
2019-03-21T11:50:31.617Z,3.47
2019-03-21T11:55:37.458Z,1.77
2019-03-21T12:00:45.165Z,0.70
2019-03-21T12:05:50.757Z,1.30
2019-03-21T12:10:56.574Z,0.70
2019-03-21T12:16:02.947Z,0.60
2019-03-21T12:21:08.754Z,0.83
2019-03-21T12:26:14.572Z,0.40
2019-03-21T12:31:20.343Z,0.20
2019-03-21T12:36:26.077Z,0.20
2019-03-21T12:41:32.025Z,0.20
2019-03-21T12:46:38.003Z,0.20
2019-03-21T12:51:45.863Z,0.20
2019-03-21T12:56:53.064Z,0.10
2019-03-21T13:02:01.467Z,0.60
2019-03-21T13:07:07.238Z,0.27
2019-03-21T13:12:13.614Z,0.93
2019-03-21T13:17:22.607Z,0.20
2019-03-21T13:22:29.664Z,0.43
2019-03-21T13:27:35.747Z,0.00
2019-03-21T13:32:41.694Z,0.10
2019-03-21T13:37:47.528Z,0.20
2019-03-21T13:42:53.574Z,0.10
2019-03-21T13:47:59.381Z,0.27
2019-03-21T13:53:17.897Z,0.60
2019-03-21T13:58:13.020Z,0.20
2019-03-21T14:03:24.925Z,0.77
2019-03-21T14:08:26.620Z,0.30
2019-03-21T14:13:32.582Z,0.30
2019-03-21T14:18:38.327Z,0.20
2019-03-21T14:23:44.227Z,0.33
2019-03-21T14:28:50.002Z,0.20
2019-03-21T14:33:55.742Z,0.50
2019-03-21T14:39:01.542Z,0.20
2019-03-21T14:44:07.300Z,0.60
2019-03-21T14:49:13.095Z,0.60
2019-03-21T14:54:19.174Z,0.40
2019-03-21T14:59:25.238Z,0.83
2019-03-21T15:04:31.086Z,0.50
2019-03-21T15:09:37.078Z,0.90
2019-03-21T15:14:43.377Z,1.10
2019-03-21T15:19:49.197Z,1.00
2019-03-21T15:24:55.042Z,1.00
2019-03-21T15:30:01.364Z,1.70
2019-03-21T15:35:09.558Z,1.37
2019-03-21T15:40:15.816Z,0.80
2019-03-21T15:45:27.047Z,1.20
2019-03-21T15:50:37.730Z,2.33
2019-03-21T15:55:42.576Z,2.00
2019-03-21T16:00:49.185Z,1.93
2019-03-21T16:05:55.011Z,1.17
2019-03-21T16:11:00.727Z,1.27
2019-03-21T16:16:06.592Z,1.02
2019-03-21T16:21:12.967Z,0.83
2019-03-21T16:26:18.850Z,0.50
2019-03-21T16:31:24.749Z,0.83
2019-03-21T16:36:30.540Z,1.17
2019-03-21T16:41:36.452Z,1.00
2019-03-21T16:46:42.309Z,1.50
2019-03-21T16:51:50.657Z,2.00
2019-03-21T16:56:56.522Z,2.30
2019-03-21T17:02:02.328Z,1.80
2019-03-21T17:07:08.111Z,2.00
2019-03-21T17:12:13.990Z,2.10
2019-03-21T17:17:20.003Z,2.80
2019-03-21T17:22:26.002Z,2.33
2019-03-21T17:27:33.173Z,2.30
2019-03-21T17:32:39.269Z,2.30
2019-03-21T17:37:45.858Z,2.63
2019-03-21T17:42:51.860Z,2.85
2019-03-21T17:47:57.714Z,2.20
2019-03-21T17:53:03.477Z,2.10
2019-03-21T17:58:09.296Z,2.00
2019-03-21T18:03:15.413Z,1.53
2019-03-21T18:08:22.562Z,1.13
2019-03-21T18:13:28.530Z,1.57
2019-03-21T18:18:34.562Z,3.67
2019-03-21T18:23:40.252Z,3.72
2019-03-21T18:28:46.337Z,3.67
2019-03-21T18:33:52.149Z,5.15
2019-03-21T18:38:59.935Z,4.90
2019-03-21T18:44:05.700Z,5.80
2019-03-21T18:49:12.408Z,5.80
2019-03-21T18:54:18.327Z,5.57
2019-03-21T18:59:24.226Z,4.87
2019-03-21T19:04:30.168Z,5.77
2019-03-21T19:09:36.306Z,3.83
2019-03-21T19:14:42.126Z,5.47
2019-03-21T19:19:47.978Z,7.30
2019-03-21T19:24:53.938Z,8.10
2019-03-21T19:29:59.792Z,4.10
2019-03-21T19:35:06.251Z,4.33
2019-03-21T19:40:13.707Z,4.17
2019-03-21T19:45:20.245Z,3.30
2019-03-21T19:50:26.227Z,3.63
2019-03-21T19:55:32.288Z,5.83
2019-03-21T20:00:38.464Z,5.87
2019-03-21T20:05:44.905Z,5.80
2019-03-21T20:10:50.946Z,5.35
2019-03-21T20:15:57.321Z,5.17
2019-03-21T20:21:03.314Z,4.10
2019-03-21T20:26:09.465Z,4.83
2019-03-21T20:31:15.445Z,4.50
2019-03-21T20:36:21.346Z,2.20
2019-03-21T20:41:27.206Z,1.63
2019-03-21T20:46:33.053Z,1.02
2019-03-21T20:51:39.002Z,0.37
2019-03-21T20:56:44.868Z,0.72
2019-03-21T21:02:02.143Z,0.60
2019-03-21T21:07:00.726Z,2.00
2019-03-21T21:12:06.652Z,1.53
2019-03-21T21:17:12.526Z,0.70
2019-03-21T21:22:19.585Z,0.40
2019-03-21T21:27:25.430Z,0.60
2019-03-21T21:32:31.285Z,0.57
2019-03-21T21:37:37.565Z,0.70
2019-03-21T21:42:43.417Z,0.10
2019-03-21T21:47:49.539Z,0.27
2019-03-21T21:52:55.347Z,0.20
2019-03-21T21:58:01.155Z,0.40
2019-03-21T22:03:07.367Z,0.33
2019-03-21T22:08:13.287Z,0.43
2019-03-21T22:13:19.362Z,0.73
2019-03-21T22:18:25.706Z,0.60
2019-03-21T22:23:31.969Z,0.87
2019-03-21T22:28:37.766Z,0.97
2019-03-21T22:33:43.593Z,1.40
2019-03-21T22:38:50.984Z,2.30
2019-03-21T22:43:56.846Z,2.30
2019-03-21T22:49:02.765Z,1.30
2019-03-21T22:54:08.505Z,3.90
2019-03-21T22:59:14.326Z,7.77
2019-03-21T23:04:20.165Z,9.87
2019-03-21T23:09:26.016Z,8.70
2019-03-21T23:14:32.153Z,6.50
2019-03-21T23:19:38.126Z,5.57
2019-03-21T23:24:43.908Z,6.67
2019-03-21T23:29:50.065Z,6.37
2019-03-21T23:34:55.846Z,11.17
2019-03-21T23:40:01.765Z,13.35
2019-03-21T23:45:08.446Z,9.00
2019-03-21T23:50:14.548Z,11.43
2019-03-21T23:55:20.625Z,13.87
